Time;durP1;ratioP1;P1;durP2;ratioP2;P2;SDS_P1;SDS_P2;PMS_P1;PMS_P2;Temp;Humidity;BMP_temperature;BMP_pressure;BME280_temperature;BME280_humidity;BME280_pressure;Samples;Min_cycle;Max_cycle;Signal;HPM_P1;HPM_P2
2022/09/08 00:01:39;;;;;;;25.05;20.35;;;16.10;99.90;;;;;;5094742;28;20077;-79
2022/09/08 00:04:06;;;;;;;23.88;21.00;;;16.10;99.90;;;;;;5061452;28;20108;-79
2022/09/08 00:06:32;;;;;;;19.52;17.55;;;16.00;99.90;;;;;;5077952;28;20645;-80
2022/09/08 00:08:59;;;;;;;25.48;22.38;;;16.00;99.90;;;;;;5095887;28;20130;-80
2022/09/08 00:11:31;;;;;;;25.58;21.42;;;16.00;99.90;;;;;;5095601;28;20050;-80
2022/09/08 00:14:04;;;;;;;21.60;18.23;;;16.00;99.90;;;;;;5078162;28;20123;-81
2022/09/08 00:16:30;;;;;;;25.67;21.77;;;16.00;99.90;;;;;;5095724;28;20353;-80
2022/09/08 00:18:56;;;;;;;24.27;21.73;;;16.10;99.90;;;;;;5078001;28;20070;-79
2022/09/08 00:21:25;;;;;;;24.65;20.70;;;16.10;99.90;;;;;;5077929;28;20032;-79
2022/09/08 00:23:51;;;;;;;24.98;21.45;;;16.00;99.90;;;;;;5077992;28;20036;-81
2022/09/08 00:26:19;;;;;;;30.95;22.08;;;16.10;99.90;;;;;;5077968;28;20047;-79
2022/09/08 00:28:46;;;;;;;28.85;23.70;;;16.10;99.90;;;;;;5061226;28;20055;-81
2022/09/08 00:31:11;;;;;;;31.00;25.73;;;16.10;99.90;;;;;;5095442;28;20065;-80
2022/09/08 00:33:37;;;;;;;25.63;21.95;;;16.10;99.90;;;;;;5077527;28;20036;-80
2022/09/08 00:36:04;;;;;;;29.73;24.90;;;16.10;99.90;;;;;;5077584;28;20209;-79
2022/09/08 00:38:31;;;;;;;29.60;25.23;;;16.10;99.90;;;;;;5078127;28;20055;-79
2022/09/08 00:40:58;;;;;;;30.60;27.27;;;16.10;99.90;;;;;;5077665;28;20032;-80
2022/09/08 00:43:32;;;;;;;33.08;27.70;;;16.20;99.90;;;;;;5095360;28;20047;-81
2022/09/08 00:46:04;;;;;;;32.15;28.67;;;16.20;99.90;;;;;;5077304;28;20537;-81
2022/09/08 00:48:31;;;;;;;34.70;28.10;;;16.20;99.90;;;;;;5076785;28;20063;-80
2022/09/08 00:50:58;;;;;;;35.75;29.00;;;16.30;99.90;;;;;;5076743;28;20109;-80
2022/09/08 00:53:26;;;;;;;33.80;29.88;;;16.30;99.90;;;;;;5095059;28;20040;-80
2022/09/08 00:55:52;;;;;;;33.33;29.25;;;16.40;99.90;;;;;;5060842;28;20043;-81
2022/09/08 00:58:18;;;;;;;34.15;29.08;;;16.40;99.90;;;;;;5077337;28;20051;-79
2022/09/08 01:00:44;;;;;;;39.55;31.33;;;16.40;99.90;;;;;;5094960;28;20313;-79
2022/09/08 01:03:15;;;;;;;34.63;30.90;;;16.50;99.90;;;;;;5094689;28;20043;-80
2022/09/08 01:05:55;;;;;;;38.78;34.05;;;16.50;99.90;;;;;;5077201;28;20053;-79
2022/09/08 01:14:50;;;;;;;35.85;31.20;;;16.60;99.90;;;;;;5094018;28;20090;-81
2022/09/08 01:17:17;;;;;;;41.80;34.38;;;16.70;99.90;;;;;;5094699;28;20055;-79
2022/09/08 01:19:46;;;;;;;39.33;33.20;;;16.70;99.90;;;;;;5094359;28;20102;-79
2022/09/08 01:22:37;;;;;;;40.80;35.28;;;16.70;99.90;;;;;;5094507;28;20122;-79
2022/09/08 01:25:28;;;;;;;39.95;34.25;;;16.70;99.90;;;;;;5094486;28;20387;-80
2022/09/08 01:28:14;;;;;;;40.30;35.20;;;16.70;99.90;;;;;;5076758;28;20043;-79
2022/09/08 01:30:42;;;;;;;40.88;33.83;;;16.70;99.90;;;;;;5094273;28;20040;-81
2022/09/08 01:33:11;;;;;;;42.25;35.42;;;16.70;99.90;;;;;;5094404;28;20058;-80
2022/09/08 01:35:38;;;;;;;46.50;39.38;;;16.70;99.90;;;;;;5076580;28;20036;-80
2022/09/08 01:38:08;;;;;;;42.17;36.45;;;16.80;99.90;;;;;;5076620;28;20040;-80
2022/09/08 01:40:34;;;;;;;45.40;37.80;;;16.70;99.90;;;;;;5076575;28;20189;-82
2022/09/08 01:42:59;;;;;;;49.55;39.30;;;16.70;99.90;;;;;;5076467;28;20504;-82
2022/09/08 01:45:27;;;;;;;40.70;36.30;;;16.80;99.90;;;;;;5072500;28;20365;-80
2022/09/08 01:47:54;;;;;;;41.38;35.30;;;16.80;99.90;;;;;;5093487;28;20055;-81
2022/09/08 01:50:20;;;;;;;43.58;38.05;;;16.80;99.90;;;;;;5093444;28;20052;-81
2022/09/08 01:52:47;;;;;;;49.50;40.20;;;16.80;99.90;;;;;;5060216;28;20101;-79
2022/09/08 01:55:13;;;;;;;44.20;36.95;;;16.80;99.90;;;;;;5093856;28;20043;-80
2022/09/08 01:57:39;;;;;;;43.72;38.92;;;16.80;99.90;;;;;;5093882;28;20050;-81
2022/09/08 02:00:06;;;;;;;47.53;39.13;;;16.80;99.90;;;;;;5076955;28;20044;-81
2022/09/08 02:02:32;;;;;;;46.08;38.22;;;16.90;99.90;;;;;;5093736;28;20048;-80
2022/09/08 02:04:58;;;;;;;47.63;40.22;;;16.90;99.90;;;;;;5059554;28;20469;-80
2022/09/08 02:07:24;;;;;;;44.30;38.17;;;16.90;99.90;;;;;;5093806;28;20123;-82
2022/09/08 02:09:51;;;;;;;44.25;39.30;;;16.90;99.90;;;;;;5093318;28;20501;-81
2022/09/08 02:12:17;;;;;;;45.20;40.20;;;16.90;99.90;;;;;;5075549;28;20040;-80
2022/09/08 02:14:42;;;;;;;46.72;38.10;;;16.90;99.90;;;;;;5093455;28;20044;-79
2022/09/08 02:17:08;;;;;;;45.95;39.30;;;16.90;99.90;;;;;;5093402;28;20036;-80
2022/09/08 02:19:34;;;;;;;44.30;38.67;;;16.90;99.90;;;;;;5058725;28;20043;-80
2022/09/08 02:22:00;;;;;;;47.40;37.28;;;16.90;99.90;;;;;;5093311;28;20056;-80
2022/09/08 02:24:25;;;;;;;49.63;39.38;;;17.00;99.90;;;;;;5093056;28;20063;-80
2022/09/08 02:26:52;;;;;;;46.83;40.67;;;17.00;99.90;;;;;;5075420;28;20036;-79
2022/09/08 02:29:17;;;;;;;46.45;39.08;;;17.00;99.90;;;;;;5092963;28;20371;-81
2022/09/08 02:31:43;;;;;;;45.25;38.90;;;17.00;99.90;;;;;;5075174;28;20044;-80
2022/09/08 02:34:09;;;;;;;47.50;40.83;;;17.00;99.90;;;;;;5058580;28;20208;-80
2022/09/08 02:36:34;;;;;;;42.80;38.15;;;17.00;99.90;;;;;;5075341;28;20118;-82
2022/09/08 02:39:00;;;;;;;47.60;39.55;;;17.00;99.90;;;;;;5075304;28;20079;-80
2022/09/08 02:41:28;;;;;;;45.25;39.92;;;17.00;99.90;;;;;;5093039;28;20048;-80
2022/09/08 02:43:54;;;;;;;46.17;40.45;;;17.00;99.90;;;;;;5074925;28;20074;-80
2022/09/08 02:46:20;;;;;;;51.03;40.50;;;17.00;99.90;;;;;;5076156;28;20044;-79
2022/09/08 02:48:46;;;;;;;45.38;40.47;;;17.00;99.90;;;;;;5057976;28;20412;-81
2022/09/08 02:51:14;;;;;;;47.55;42.10;;;17.00;99.90;;;;;;5092816;28;20453;-80
2022/09/08 02:53:41;;;;;;;47.97;42.50;;;17.00;99.90;;;;;;5074932;28;20417;-80
2022/09/08 02:56:08;;;;;;;46.72;40.58;;;17.00;99.90;;;;;;5092607;28;20035;-79
2022/09/08 02:58:34;;;;;;;46.20;39.60;;;17.00;99.90;;;;;;5075227;28;20043;-79
2022/09/08 03:01:01;;;;;;;50.65;42.83;;;17.00;99.90;;;;;;5075127;28;20343;-81
2022/09/08 03:03:27;;;;;;;45.83;40.83;;;17.00;99.90;;;;;;5092882;28;20035;-80
2022/09/08 03:05:53;;;;;;;48.13;41.90;;;17.10;99.90;;;;;;5074997;28;20040;-80
2022/09/08 03:08:20;;;;;;;46.95;41.42;;;17.00;99.90;;;;;;5058320;28;20416;-79
2022/09/08 03:10:48;;;;;;;50.30;41.97;;;17.00;99.90;;;;;;5074773;28;20442;-81
2022/09/08 03:13:14;;;;;;;46.15;40.88;;;17.00;99.90;;;;;;5093332;28;20169;-80
2022/09/08 03:15:41;;;;;;;47.83;42.50;;;17.00;99.90;;;;;;5074736;28;20168;-80
2022/09/08 03:18:07;;;;;;;51.95;43.63;;;17.00;99.90;;;;;;5092651;28;20036;-81
2022/09/08 03:20:35;;;;;;;50.88;41.55;;;17.10;99.90;;;;;;5074831;28;20036;-79
2022/09/08 03:23:02;;;;;;;49.25;41.22;;;17.10;99.90;;;;;;5092401;28;20122;-80
2022/09/08 03:25:28;;;;;;;50.50;43.72;;;17.10;99.90;;;;;;5074726;28;20079;-80
2022/09/08 03:27:55;;;;;;;48.33;41.33;;;17.10;99.90;;;;;;5092586;28;20109;-80
2022/09/08 03:30:20;;;;;;;48.83;41.97;;;17.10;99.90;;;;;;5074719;28;20075;-80
2022/09/08 03:32:47;;;;;;;52.75;44.33;;;17.10;99.90;;;;;;5092581;28;20117;-79
2022/09/08 03:35:16;;;;;;;50.97;43.55;;;17.10;99.90;;;;;;5074705;28;20047;-81
2022/09/08 03:37:43;;;;;;;49.85;43.97;;;17.10;99.90;;;;;;5078427;28;20102;-80
2022/09/08 03:40:13;;;;;;;51.22;43.78;;;17.00;99.90;;;;;;5096451;28;20461;-79
2022/09/08 03:42:41;;;;;;;44.25;37.33;;;17.00;99.90;;;;;;5079400;28;20485;-81
2022/09/08 03:45:10;;;;;;;53.42;40.70;;;17.10;99.90;;;;;;5078877;28;20046;-80
2022/09/08 03:47:37;;;;;;;55.28;40.13;;;17.00;99.90;;;;;;5096043;28;20052;-76
2022/09/08 03:50:04;;;;;;;63.53;39.30;;;17.00;99.90;;;;;;5078141;28;20052;-78
2022/09/08 03:52:30;;;;;;;73.78;41.17;;;16.80;99.90;;;;;;5096249;28;20078;-78
2022/09/08 03:54:56;;;;;;;90.43;43.83;;;16.70;99.90;;;;;;5078431;28;20035;-77
2022/09/08 03:57:25;;;;;;;62.15;38.28;;;16.70;99.90;;;;;;5096317;28;20097;-77
2022/09/08 03:59:52;;;;;;;58.05;36.00;;;16.60;99.90;;;;;;5078501;28;20040;-77
2022/09/08 04:02:19;;;;;;;60.65;36.63;;;16.60;99.90;;;;;;5096070;28;20109;-78
2022/09/08 04:04:50;;;;;;;62.72;36.65;;;16.60;99.90;;;;;;5095980;28;20039;-76
2022/09/08 04:07:17;;;;;;;43.67;27.17;;;16.60;99.90;;;;;;5078463;28;20076;-77
2022/09/08 04:09:43;;;;;;;84.63;38.90;;;16.60;99.90;;;;;;5078031;28;20483;-77
2022/09/08 04:12:09;;;;;;;65.32;34.50;;;16.60;99.90;;;;;;5096141;28;20079;-78
2022/09/08 04:14:35;;;;;;;98.68;42.05;;;16.60;99.90;;;;;;5077920;28;20080;-77
2022/09/08 04:17:01;;;;;;;72.10;35.13;;;16.60;99.90;;;;;;5095715;28;20094;-76
2022/09/08 04:19:27;;;;;;;52.35;32.28;;;16.60;99.90;;;;;;5078042;28;20327;-77
2022/09/08 04:21:53;;;;;;;74.55;38.42;;;16.60;99.90;;;;;;5078011;28;20055;-78
2022/09/08 04:24:19;;;;;;;62.88;34.08;;;16.50;99.90;;;;;;5095757;28;20036;-77
2022/09/08 04:26:46;;;;;;;63.83;32.10;;;16.50;99.90;;;;;;5081239;28;20044;-77
2022/09/08 04:29:12;;;;;;;48.20;27.95;;;16.50;99.90;;;;;;5081126;28;20080;-77
2022/09/08 04:31:38;;;;;;;59.67;31.40;;;16.40;99.90;;;;;;5097639;28;20474;-76
2022/09/08 04:34:05;;;;;;;78.32;31.40;;;16.40;99.90;;;;;;5077361;28;20079;-76
2022/09/08 04:36:31;;;;;;;22.92;17.08;;;16.40;99.90;;;;;;5095473;28;20048;-76
2022/09/08 04:38:59;;;;;;;26.02;16.75;;;16.40;99.90;;;;;;5077660;28;20036;-77
2022/09/08 04:41:27;;;;;;;29.42;18.45;;;16.30;99.90;;;;;;5077482;28;20035;-76
2022/09/08 04:43:55;;;;;;;55.22;33.53;;;16.20;99.90;;;;;;5077726;28;20131;-78
2022/09/08 04:46:21;;;;;;;58.90;35.83;;;16.20;99.90;;;;;;5095238;28;20051;-78
2022/09/08 04:48:48;;;;;;;58.38;35.25;;;16.20;99.90;;;;;;5094822;28;20062;-77
2022/09/08 04:51:17;;;;;;;94.28;43.25;;;16.20;99.90;;;;;;5095851;28;20319;-77
2022/09/08 04:53:44;;;;;;;76.32;38.55;;;16.20;99.90;;;;;;5079650;28;20044;-76
2022/09/08 04:56:11;;;;;;;59.20;35.88;;;16.20;99.90;;;;;;5098241;28;20427;-75
2022/09/08 04:58:40;;;;;;;67.28;35.85;;;16.30;99.90;;;;;;5078749;28;20047;-77
2022/09/08 05:01:07;;;;;;;79.25;38.17;;;16.30;99.90;;;;;;5077038;28;20036;-80
2022/09/08 05:03:34;;;;;;;54.08;33.60;;;16.30;99.90;;;;;;5077277;28;20044;-76
2022/09/08 05:06:08;;;;;;;131.82;48.05;;;16.30;99.90;;;;;;5077222;28;20056;-77
2022/09/08 05:08:34;;;;;;;158.50;49.80;;;16.30;99.90;;;;;;5095205;28;20055;-76
2022/09/08 05:11:01;;;;;;;106.70;44.67;;;16.30;99.90;;;;;;5094853;28;20326;-76
2022/09/08 05:13:27;;;;;;;197.68;59.35;;;16.30;99.90;;;;;;5077140;28;20051;-77
2022/09/08 05:15:52;;;;;;;115.38;47.58;;;16.40;99.90;;;;;;5076777;28;20051;-76
2022/09/08 05:18:18;;;;;;;82.32;39.72;;;16.30;99.90;;;;;;5094694;28;20040;-77
2022/09/08 05:20:53;;;;;;;92.18;41.97;;;16.40;99.90;;;;;;5076946;28;20052;-76
2022/09/08 05:23:19;;;;;;;64.43;35.75;;;16.40;99.90;;;;;;5077000;28;20177;-76
2022/09/08 05:25:44;;;;;;;67.93;36.30;;;16.40;99.90;;;;;;5094044;28;20114;-77
2022/09/08 05:28:10;;;;;;;144.00;49.35;;;16.30;99.90;;;;;;5094189;28;20048;-76
2022/09/08 05:30:39;;;;;;;125.55;47.42;;;16.30;99.90;;;;;;5094373;28;20040;-77
2022/09/08 05:33:05;;;;;;;267.70;66.35;;;16.30;99.90;;;;;;5094457;28;20055;-76
2022/09/08 05:35:34;;;;;;;326.35;73.40;;;16.30;99.90;;;;;;5094411;28;20531;-76
2022/09/08 05:38:00;;;;;;;101.10;45.63;;;16.30;99.90;;;;;;5076471;28;20354;-77
2022/09/08 05:40:26;;;;;;;109.47;43.60;;;16.30;99.90;;;;;;5076668;28;20048;-78
2022/09/08 05:42:51;;;;;;;104.88;40.60;;;16.30;99.90;;;;;;5094177;28;20131;-76
2022/09/08 05:45:17;;;;;;;126.13;45.75;;;16.30;99.90;;;;;;5094197;28;20437;-76
2022/09/08 05:47:43;;;;;;;85.55;39.50;;;16.30;99.90;;;;;;5085317;28;20397;-76
2022/09/08 05:50:09;;;;;;;106.55;41.67;;;16.30;99.90;;;;;;5073474;28;20114;-76
2022/09/08 05:52:34;;;;;;;87.55;37.70;;;16.30;99.90;;;;;;5073823;28;20127;-77
2022/09/08 05:55:00;;;;;;;67.72;35.55;;;16.30;99.90;;;;;;5056212;28;20090;-79
2022/09/08 05:57:28;;;;;;;143.73;48.92;;;16.20;99.90;;;;;;5073462;28;20055;-77
2022/09/08 05:59:54;;;;;;;126.47;44.97;;;16.30;99.90;;;;;;5055437;28;20040;-76
2022/09/08 06:02:19;;;;;;;92.57;42.17;;;16.30;99.90;;;;;;5056174;28;20052;-76
2022/09/08 06:04:45;;;;;;;79.55;38.33;;;16.30;99.90;;;;;;5073669;28;20052;-78
2022/09/08 06:07:11;;;;;;;96.22;42.85;;;16.30;99.90;;;;;;5056117;28;20036;-77
2022/09/08 06:09:36;;;;;;;83.55;39.17;;;16.30;99.90;;;;;;5039292;28;20052;-78
2022/09/08 06:12:02;;;;;;;191.85;56.75;;;16.30;99.90;;;;;;5055587;28;20048;-77
2022/09/08 06:14:28;;;;;;;73.03;37.85;;;16.40;99.90;;;;;;5074264;28;20040;-77
2022/09/08 06:16:54;;;;;;;182.68;55.88;;;16.40;99.90;;;;;;5065363;28;20492;-77
2022/09/08 06:19:20;;;;;;;101.95;39.38;;;16.40;99.90;;;;;;5073247;28;20056;-76
2022/09/08 06:21:46;;;;;;;118.10;45.47;;;16.50;99.90;;;;;;5039016;28;20131;-76
2022/09/08 06:24:13;;;;;;;134.00;48.58;;;16.50;99.90;;;;;;5065610;28;20078;-78
2022/09/08 06:26:48;;;;;;;67.43;36.42;;;16.50;99.90;;;;;;5097220;28;20074;-78
2022/09/08 06:29:24;;;;;;;66.25;34.05;;;16.50;99.90;;;;;;5076071;28;20426;-77
2022/09/08 06:31:57;;;;;;;63.60;32.60;;;16.40;99.90;;;;;;5055260;28;20374;-77
2022/09/08 06:34:28;;;;;;;116.55;42.00;;;16.40;99.90;;;;;;5055517;28;20059;-79
2022/09/08 06:37:11;;;;;;;48.90;29.92;;;16.40;99.90;;;;;;5072810;28;20142;-77
2022/09/08 06:39:45;;;;;;;45.45;26.75;;;16.40;99.90;;;;;;5055464;28;20101;-76
2022/09/08 06:42:16;;;;;;;42.72;24.23;;;16.40;99.90;;;;;;5038639;28;20055;-76
2022/09/08 06:44:45;;;;;;;45.97;24.20;;;16.40;99.90;;;;;;5055522;28;20342;-76
2022/09/08 06:47:18;;;;;;;35.72;24.88;;;16.40;99.90;;;;;;5059238;28;20082;-75
2022/09/08 06:49:44;;;;;;;41.83;25.20;;;16.40;99.90;;;;;;5075478;28;20088;-78
2022/09/08 06:52:36;;;;;;;27.52;19.45;;;16.30;99.90;;;;;;5075031;28;20087;-78
2022/09/08 06:55:11;;;;;;;36.08;20.63;;;16.30;99.90;;;;;;5093067;28;20051;-75
2022/09/08 06:57:49;;;;;;;30.17;21.35;;;16.30;99.90;;;;;;5092948;28;20445;-76
2022/09/08 07:00:29;;;;;;;33.47;20.35;;;16.40;99.90;;;;;;5075232;28;20403;-76
2022/09/08 07:03:36;;;;;;;30.13;20.40;;;16.40;99.90;;;;;;5075173;28;20052;-76
2022/09/08 07:06:06;;;;;;;22.88;17.10;;;16.40;99.90;;;;;;5058355;28;20727;-76
2022/09/08 07:08:35;;;;;;;;;;;16.50;99.90;;;;;;5075610;28;20059;-76
2022/09/08 07:11:19;;;;;;;29.08;18.42;;;16.50;99.90;;;;;;5074050;28;19916;-76
2022/09/08 07:14:12;;;;;;;30.63;20.88;;;16.50;99.90;;;;;;5075158;28;20095;-76
2022/09/08 07:16:43;;;;;;;36.90;21.55;;;16.60;99.90;;;;;;5092613;28;20100;-78
2022/09/08 07:19:23;;;;;;;35.67;20.88;;;16.60;99.90;;;;;;5075170;28;20449;-78
2022/09/08 07:22:11;;;;;;;20.65;15.40;;;16.60;99.90;;;;;;5092672;28;20035;-77
2022/09/08 07:24:41;;;;;;;22.02;13.27;;;16.60;99.90;;;;;;5092520;28;20043;-77
2022/09/08 07:27:12;;;;;;;22.75;13.95;;;16.60;99.90;;;;;;5074977;28;20469;-77
2022/09/08 07:29:50;;;;;;;24.65;14.05;;;16.50;99.90;;;;;;5074733;28;20043;-76
2022/09/08 07:32:36;;;;;;;14.48;11.02;;;16.50;99.90;;;;;;5074583;28;20044;-77
2022/09/08 07:35:06;;;;;;;19.02;12.40;;;16.60;99.90;;;;;;5074891;28;20104;-77
2022/09/08 07:37:49;;;;;;;14.95;9.93;;;16.60;99.90;;;;;;5092268;28;20055;-78
2022/09/08 07:40:38;;;;;;;18.65;10.88;;;16.60;99.90;;;;;;5074939;28;20063;-77
2022/09/08 07:43:12;;;;;;;13.07;6.82;;;16.60;99.90;;;;;;5092589;28;20048;-76
2022/09/08 07:46:19;;;;;;;11.23;5.93;;;16.60;99.90;;;;;;5092547;28;20078;-76
2022/09/08 07:48:57;;;;;;;11.52;6.65;;;16.70;99.90;;;;;;5074293;28;20052;-76
2022/09/08 07:51:27;;;;;;;11.20;6.53;;;16.60;99.90;;;;;;5092477;28;20059;-77
2022/09/08 07:54:03;;;;;;;13.05;6.78;;;16.60;99.90;;;;;;5074654;28;20044;-77
2022/09/08 07:56:47;;;;;;;18.50;9.48;;;16.70;99.90;;;;;;5092208;28;20052;-77
2022/09/08 07:59:26;;;;;;;14.57;8.23;;;16.70;99.90;;;;;;5074654;28;20054;-77
2022/09/08 08:02:11;;;;;;;11.93;6.57;;;16.80;99.90;;;;;;5092281;28;20067;-76
2022/09/08 08:05:09;;;;;;;17.13;8.10;;;16.80;99.90;;;;;;5074627;28;20048;-76
2022/09/08 08:07:47;;;;;;;10.77;6.70;;;16.80;99.90;;;;;;5074563;28;20082;-76
2022/09/08 08:10:29;;;;;;;9.48;6.28;;;16.80;99.90;;;;;;5092117;28;20040;-76
2022/09/08 08:13:12;;;;;;;7.05;5.30;;;16.80;99.90;;;;;;5074458;28;20044;-77
2022/09/08 08:15:52;;;;;;;11.05;5.63;;;16.80;99.90;;;;;;5072375;28;20051;-75
2022/09/08 08:18:39;;;;;;;10.00;6.53;;;16.80;99.90;;;;;;5092194;28;20044;-77
2022/09/08 08:21:13;;;;;;;9.52;6.40;;;16.80;99.90;;;;;;5074207;28;20051;-77
2022/09/08 08:23:55;;;;;;;11.63;7.07;;;16.80;99.90;;;;;;5077562;28;20123;-76
2022/09/08 08:26:30;;;;;;;14.23;7.45;;;16.80;99.90;;;;;;5095787;28;20032;-76
2022/09/08 08:29:11;;;;;;;13.65;7.57;;;16.80;99.90;;;;;;5078024;28;20267;-74
2022/09/08 08:31:55;;;;;;;8.95;6.68;;;16.80;99.90;;;;;;5095375;28;20108;-75
2022/09/08 08:34:40;;;;;;;11.90;7.75;;;16.80;99.90;;;;;;5095408;28;20448;-77
2022/09/08 08:37:09;;;;;;;13.90;9.07;;;16.70;99.90;;;;;;5095670;28;20118;-76
2022/09/08 08:39:36;;;;;;;11.48;8.40;;;16.70;99.90;;;;;;5077717;28;20119;-76
2022/09/08 08:42:17;;;;;;;12.65;8.10;;;16.70;99.90;;;;;;5077730;28;20050;-76
2022/09/08 08:45:01;;;;;;;11.77;7.50;;;16.80;99.90;;;;;;5077659;28;20051;-75
2022/09/08 08:47:50;;;;;;;12.70;7.68;;;16.80;99.90;;;;;;5075354;28;20388;-75
2022/09/08 08:50:59;;;;;;;9.98;7.10;;;16.80;99.90;;;;;;5095067;28;20078;-75
2022/09/08 08:53:55;;;;;;;12.30;7.00;;;16.70;99.90;;;;;;5073253;28;20166;-74
2022/09/08 08:56:47;;;;;;;15.88;7.60;;;16.70;99.90;;;;;;5115292;28;20467;-77
2022/09/08 08:59:31;;;;;;;12.73;7.95;;;16.70;99.90;;;;;;5097085;28;20128;-74
2022/09/08 09:02:14;;;;;;;16.17;8.50;;;16.80;99.90;;;;;;5095138;28;20453;-74
2022/09/08 09:04:51;;;;;;;14.20;8.68;;;16.80;99.90;;;;;;5095296;28;20143;-75
2022/09/08 09:07:17;;;;;;;16.77;8.45;;;16.80;99.90;;;;;;5076564;28;20036;-74
2022/09/08 09:10:11;;;;;;;14.02;8.70;;;16.80;99.90;;;;;;5094820;28;20062;-75
2022/09/08 09:12:39;;;;;;;14.95;8.90;;;16.80;99.90;;;;;;5076286;28;20040;-74
2022/09/08 09:15:30;;;;;;;11.70;8.70;;;16.80;99.90;;;;;;5094851;28;20054;-74
2022/09/08 09:18:05;;;;;;;14.82;9.75;;;16.80;99.90;;;;;;5077007;28;20442;-76
2022/09/08 09:20:39;;;;;;;16.30;9.45;;;16.80;99.90;;;;;;5094573;28;20055;-76
2022/09/08 09:23:24;;;;;;;11.52;7.47;;;16.80;99.90;;;;;;5094334;28;20051;-74
2022/09/08 09:25:59;;;;;;;15.35;8.20;;;16.80;99.90;;;;;;5076845;28;20056;-75
2022/09/08 09:28:43;;;;;;;11.23;7.75;;;16.70;99.90;;;;;;5094468;28;20119;-76
2022/09/08 09:31:31;;;;;;;14.80;8.70;;;16.70;99.90;;;;;;5094302;28;20452;-75
2022/09/08 09:34:27;;;;;;;15.85;9.50;;;16.60;99.90;;;;;;5093454;28;20359;-76
2022/09/08 09:37:08;;;;;;;13.55;6.53;;;16.60;99.90;;;;;;5094120;28;20438;-76
2022/09/08 09:39:51;;;;;;;7.15;3.38;;;16.60;99.90;;;;;;5076580;28;20044;-75
2022/09/08 09:42:38;;;;;;;9.35;4.88;;;16.50;99.90;;;;;;5076480;28;20396;-75
2022/09/08 09:45:24;;;;;;;5.65;2.83;;;16.50;99.90;;;;;;5094048;28;20090;-75
2022/09/08 09:47:56;;;;;;;7.65;2.65;;;16.40;99.90;;;;;;5093694;28;20362;-75
2022/09/08 09:50:51;;;;;;;7.60;2.40;;;16.40;99.90;;;;;;5076334;28;20081;-73
2022/09/08 09:53:22;;;;;;;6.47;3.25;;;16.30;99.90;;;;;;5093981;28;20050;-76
2022/09/08 09:56:06;;;;;;;9.65;3.20;;;16.30;99.90;;;;;;5094028;28;20048;-74
2022/09/08 09:58:54;;;;;;;7.30;3.95;;;16.30;99.90;;;;;;5076295;28;20047;-74
2022/09/08 10:01:53;;;;;;;5.88;3.17;;;16.30;99.90;;;;;;5093544;28;20469;-76
2022/09/08 10:04:56;;;;;;;6.45;3.58;;;16.30;99.90;;;;;;5076165;28;20119;-75
2022/09/08 10:07:25;;;;;;;5.68;3.45;;;16.30;99.90;;;;;;5093759;28;20070;-74
2022/09/08 10:10:28;;;;;;;9.18;3.75;;;16.30;99.90;;;;;;5076035;28;20090;-74
2022/09/08 10:13:25;;;;;;;4.78;3.40;;;16.40;99.90;;;;;;5034462;28;20096;-75
2022/09/08 10:16:15;;;;;;;6.63;4.03;;;16.40;99.90;;;;;;5075706;28;20059;-77
2022/09/08 10:18:45;;;;;;;;;;;16.40;99.90;;;;;;5094196;28;20346;-75
2022/09/08 10:21:14;;;;;;;7.30;5.05;;;16.50;99.90;;;;;;5093607;28;20558;-77
2022/09/08 10:24:02;;;;;;;10.82;5.40;;;16.50;99.90;;;;;;5093630;28;20047;-77
2022/09/08 10:26:59;;;;;;;7.88;5.30;;;16.50;99.90;;;;;;5075768;28;20520;-77
2022/09/08 10:29:42;;;;;;;8.32;6.13;;;16.60;99.90;;;;;;5075631;28;20073;-76
2022/09/08 10:32:41;;;;;;;11.13;5.40;;;16.60;99.90;;;;;;5075364;28;20040;-78
2022/09/08 10:35:33;;;;;;;6.63;5.22;;;16.60;99.90;;;;;;5093271;28;20040;-76
2022/09/08 10:38:41;;;;;;;9.40;6.10;;;16.70;99.90;;;;;;5092786;28;20052;-76
2022/09/08 10:41:22;;;;;;;9.95;5.57;;;16.70;99.90;;;;;;5092631;28;20040;-76
2022/09/08 10:44:15;;;;;;;10.27;5.45;;;16.70;99.90;;;;;;5093078;28;20047;-75
2022/09/08 10:47:09;;;;;;;9.45;5.07;;;16.70;99.90;;;;;;5093164;28;20626;-76
2022/09/08 10:49:46;;;;;;;10.70;5.95;;;16.70;99.90;;;;;;5093074;28;20052;-75
2022/09/08 10:52:41;;;;;;;8.75;4.55;;;16.80;99.90;;;;;;5093235;28;20044;-75
2022/09/08 10:55:42;;;;;;;6.65;3.85;;;16.80;99.90;;;;;;5093112;28;20051;-75
2022/09/08 10:58:27;;;;;;;6.43;3.50;;;16.80;99.90;;;;;;5075393;28;20048;-75
2022/09/08 11:01:47;;;;;;;7.15;4.40;;;16.70;99.90;;;;;;5092762;28;20104;-77
2022/09/08 11:04:48;;;;;;;7.57;4.28;;;16.80;99.90;;;;;;5050000;28;20141;-75
2022/09/08 11:07:32;;;;;;;7.40;4.90;;;16.80;99.90;;;;;;5087348;28;20054;-76
2022/09/08 11:10:07;;;;;;;9.45;4.95;;;16.80;99.90;;;;;;5075040;28;20153;-74
2022/09/08 11:13:18;;;;;;;6.53;4.57;;;16.80;99.90;;;;;;5075074;28;20323;-76
2022/09/08 11:15:56;;;;;;;7.15;5.20;;;16.80;99.90;;;;;;5058938;28;20048;-77
2022/09/08 11:18:44;;;;;;;7.65;5.35;;;16.80;99.90;;;;;;5092637;28;20036;-74
2022/09/08 11:21:29;;;;;;;7.50;5.47;;;16.80;99.90;;;;;;5074863;28;20050;-76
2022/09/08 11:24:24;;;;;;;8.60;6.40;;;16.90;99.90;;;;;;5075027;28;20047;-76
2022/09/08 11:27:14;;;;;;;7.95;6.07;;;16.90;99.90;;;;;;5066162;28;20465;-76
2022/09/08 11:29:40;;;;;;;9.70;6.60;;;16.90;99.90;;;;;;5092539;28;20054;-76
2022/09/08 11:32:47;;;;;;;8.23;6.13;;;17.00;99.90;;;;;;5074759;28;20415;-76
2022/09/08 11:35:35;;;;;;;9.90;7.25;;;17.00;99.90;;;;;;5074502;28;20117;-76
2022/09/08 11:38:34;;;;;;;9.20;7.68;;;17.00;99.90;;;;;;5074792;28;20044;-75
2022/09/08 11:41:26;;;;;;;10.38;7.40;;;17.10;99.90;;;;;;5092490;28;20048;-76
2022/09/08 11:44:05;;;;;;;10.57;8.40;;;17.20;99.90;;;;;;5074776;28;20048;-77
2022/09/08 11:46:50;;;;;;;9.98;8.85;;;17.30;99.90;;;;;;5074634;28;20039;-76
2022/09/08 11:49:37;;;;;;;11.75;8.95;;;17.30;99.90;;;;;;5092414;28;20048;-74
2022/09/08 11:52:18;;;;;;;13.57;11.02;;;17.40;99.90;;;;;;5074407;28;20330;-74
2022/09/08 11:55:18;;;;;;;14.32;11.45;;;17.40;99.90;;;;;;5092123;28;20449;-74
2022/09/08 11:58:10;;;;;;;15.50;11.00;;;17.50;99.90;;;;;;5043892;28;20088;-74
2022/09/08 12:00:45;;;;;;;12.48;10.20;;;17.60;99.90;;;;;;5096276;28;20109;-77
2022/09/08 12:03:52;;;;;;;15.63;11.40;;;17.60;99.90;;;;;;5078577;28;20464;-76
2022/09/08 12:06:26;;;;;;;15.23;11.32;;;17.70;99.90;;;;;;5048384;28;20101;-74
2022/09/08 12:09:21;;;;;;;13.75;11.68;;;17.90;99.90;;;;;;5095855;28;20044;-79
2022/09/08 12:12:25;;;;;;;15.20;11.00;;;17.90;99.90;;;;;;5051206;28;20048;-78
2022/09/08 12:15:17;;;;;;;14.60;12.30;;;17.90;99.90;;;;;;5078097;28;20048;-78
2022/09/08 12:18:07;;;;;;;15.82;12.43;;;17.90;99.90;;;;;;5054573;28;20048;-78
2022/09/08 12:20:48;;;;;;;14.45;11.82;;;17.90;99.90;;;;;;5096028;28;20129;-77
2022/09/08 12:23:31;;;;;;;14.48;11.23;;;17.90;99.90;;;;;;5095686;28;20044;-76
2022/09/08 12:26:00;;;;;;;13.93;12.50;;;18.00;99.90;;;;;;5095806;28;20067;-77
2022/09/08 12:28:34;;;;;;;17.27;13.32;;;18.10;99.90;;;;;;5078028;28;20048;-76
2022/09/08 12:31:26;;;;;;;16.98;13.13;;;18.20;99.90;;;;;;5095752;28;20361;-76
2022/09/08 12:34:16;;;;;;;16.92;13.23;;;18.20;99.90;;;;;;5077894;28;20048;-76
2022/09/08 12:36:49;;;;;;;17.65;13.55;;;18.30;99.90;;;;;;5095722;28;20058;-76
2022/09/08 12:39:37;;;;;;;16.30;13.60;;;18.40;99.90;;;;;;5077874;28;20458;-77
2022/09/08 12:42:31;;;;;;;17.88;14.82;;;18.40;99.90;;;;;;5077837;28;20040;-75
2022/09/08 12:45:12;;;;;;;19.02;14.73;;;18.50;99.90;;;;;;5077785;28;20461;-76
2022/09/08 12:47:56;;;;;;;20.20;14.77;;;18.60;99.90;;;;;;5095149;28;20381;-77
2022/09/08 12:50:33;;;;;;;21.58;15.75;;;18.60;99.90;;;;;;5094956;28;20123;-77
2022/09/08 12:53:18;;;;;;;16.40;14.50;;;18.70;99.90;;;;;;5095261;28;20043;-78
2022/09/08 12:55:59;;;;;;;21.10;14.65;;;18.70;99.90;;;;;;5095258;28;20039;-78
2022/09/08 12:58:33;;;;;;;18.10;15.13;;;18.70;99.90;;;;;;5077437;28;20075;-79
2022/09/08 13:01:25;;;;;;;17.73;15.50;;;18.80;99.90;;;;;;5095388;28;20048;-78
2022/09/08 13:03:59;;;;;;;23.00;16.00;;;18.80;99.90;;;;;;5077348;28;20180;-79
2022/09/08 13:06:47;;;;;;;16.42;14.40;;;18.80;99.90;;;;;;5095130;28;20116;-75
2022/09/08 13:09:24;;;;;;;17.95;14.38;;;18.80;99.90;;;;;;5076991;28;20043;-76
2022/09/08 13:12:05;;;;;;;18.77;14.48;;;18.80;99.90;;;;;;5059753;28;20373;-77
2022/09/08 13:14:51;;;;;;;16.35;14.65;;;18.70;99.90;;;;;;5079183;28;20079;-77
2022/09/08 13:17:30;;;;;;;16.35;13.93;;;18.80;99.90;;;;;;5066299;28;20105;-82
2022/09/08 13:20:05;;;;;;;15.80;13.05;;;18.80;99.90;;;;;;5074660;28;20376;-76